Terminal Aerodrome Forecast
Issued by NWS

Home | Current Version | Previous Version | Text Only | Print | Product List | Glossary On
Versions: 1 2 3 4 5 6 7 8 9 10 11 12 13 14 15 16 17 18 19 20 21
396
FTUS44 KLIX 220534
TAFMSY
TAF
KMSY 220534Z 2206/2306 22010KT 5SM BR BKN015
     FM220800 22010KT 3SM BR BKN009
     FM221000 24011KT 3SM BR VCTS BKN010 BKN020CB
     FM221400 26014KT P6SM SCT090
     FM230300 29020G31KT P6SM SCT050=

USA.gov is the U.S. government's official web portal to all federal, state and local government web resources and services.